Time;durP1;ratioP1;P1;durP2;ratioP2;P2;SDS_P1;SDS_P2;PMS_P1;PMS_P2;Temp;Humidity;BMP_temperature;BMP_pressure;BME280_temperature;BME280_humidity;BME280_pressure;Samples;Min_cycle;Max_cycle;Signal;HPM_P1;HPM_P2
2022/05/18 00:00:54;;;;;;;5.30;1.95;;;;;;;26.28;38.03;101762.59;5076522;28;20056;-44
2022/05/18 00:03:27;;;;;;;4.85;1.30;;;;;;;26.32;38.00;101770.56;5076332;28;20103;-43
2022/05/18 00:05:54;;;;;;;4.25;1.60;;;;;;;26.28;37.75;101755.59;5075070;28;20378;-43
2022/05/18 00:08:23;;;;;;;5.03;1.75;;;;;;;26.19;38.24;101747.56;5075089;28;20060;-43
2022/05/18 00:10:52;;;;;;;1.85;0.80;;;;;;;26.25;37.60;101763.41;5076404;28;20095;-46
2022/05/18 00:13:20;;;;;;;4.20;1.23;;;;;;;26.22;37.81;101761.63;5076030;28;20093;-43
2022/05/18 00:15:49;;;;;;;3.33;0.98;;;;;;;26.19;37.90;101752.81;5075080;28;20485;-45
2022/05/18 00:18:18;;;;;;;2.25;1.02;;;;;;;26.20;37.92;101770.38;5076181;28;20478;-42
2022/05/18 00:20:46;;;;;;;2.85;0.90;;;;;;;26.15;37.89;101774.66;5076061;28;20052;-43
2022/05/18 00:23:13;;;;;;;2.90;1.08;;;;;;;26.09;38.05;101775.41;5075562;28;20539;-43
2022/05/18 00:25:43;;;;;;;4.30;1.25;;;;;;;26.06;38.05;101765.72;5075791;28;20049;-45
2022/05/18 00:28:11;;;;;;;5.68;1.48;;;;;;;25.97;38.09;101767.31;5075862;28;20028;-44
2022/05/18 00:30:40;;;;;;;4.18;1.08;;;;;;;26.05;37.94;101773.59;5074837;28;20489;-43
2022/05/18 00:33:10;;;;;;;3.53;0.93;;;;;;;25.99;38.14;101777.00;5074298;28;20029;-45
2022/05/18 00:35:39;;;;;;;2.50;1.02;;;;;;;26.00;38.02;101767.34;5074547;28;20478;-43
2022/05/18 00:38:07;;;;;;;4.20;1.10;;;;;;;26.01;38.41;101782.28;5075896;28;20029;-46
2022/05/18 00:40:38;;;;;;;6.10;1.42;;;;;;;25.99;38.16;101782.25;5076123;28;20047;-43
2022/05/18 00:43:06;;;;;;;3.50;1.23;;;;;;;26.04;38.32;101777.06;5075772;28;20063;-43
2022/05/18 00:45:34;;;;;;;3.75;0.90;;;;;;;25.97;38.49;101783.09;5075287;28;20020;-43
2022/05/18 00:48:03;;;;;;;2.80;1.30;;;;;;;26.01;38.12;101770.03;5074636;28;20036;-43
2022/05/18 00:50:33;;;;;;;3.72;1.23;;;;;;;26.01;38.10;101763.88;5075659;28;20074;-43
2022/05/18 00:53:05;;;;;;;2.88;1.20;;;;;;;26.01;38.11;101767.41;5058194;28;20098;-43
2022/05/18 00:55:36;;;;;;;3.83;1.20;;;;;;;26.03;37.96;101776.19;5075768;28;20070;-44
2022/05/18 00:58:08;;;;;;;5.45;1.60;;;;;;;25.90;38.33;101764.56;5074465;28;20090;-43
2022/05/18 01:00:38;;;;;;;2.78;0.85;;;;;;;25.97;37.94;101773.44;5075503;28;20379;-43
2022/05/18 01:03:14;;;;;;;3.47;1.10;;;;;;;26.00;38.22;101765.63;5074003;28;20028;-43
2022/05/18 01:05:43;;;;;;;3.25;1.15;;;;;;;25.99;38.13;101763.84;5073928;28;20036;-43
2022/05/18 01:08:15;;;;;;;5.07;1.40;;;;;;;25.95;38.35;101767.28;5074135;28;20048;-44
2022/05/18 01:10:44;;;;;;;4.55;1.10;;;;;;;25.91;38.11;101770.72;5074052;28;20036;-45
2022/05/18 01:13:12;;;;;;;3.20;1.00;;;;;;;25.91;38.25;101771.59;5075300;28;20028;-47
2022/05/18 01:15:40;;;;;;;4.07;0.95;;;;;;;25.92;38.02;101765.50;5073550;28;20032;-45
2022/05/18 01:18:09;;;;;;;4.40;1.10;;;;;;;25.88;38.08;101752.28;5073835;28;20543;-43
2022/05/18 01:20:39;;;;;;;3.13;1.10;;;;;;;25.90;38.10;101754.06;5074916;28;20477;-45
2022/05/18 01:23:41;;;;;;;3.00;1.30;;;;;;;25.89;37.80;101759.31;5075086;28;20082;-45
2022/05/18 01:26:33;;;;;;;2.83;1.00;;;;;;;25.82;38.18;101750.41;5073596;28;20072;-44
2022/05/18 01:29:02;;;;;;;2.33;1.05;;;;;;;25.85;38.13;101762.72;5074882;28;20027;-43
2022/05/18 01:31:49;;;;;;;3.08;1.08;;;;;;;25.86;38.06;101765.38;5073733;28;20033;-43
2022/05/18 01:34:22;;;;;;;2.95;0.95;;;;;;;25.86;38.16;101767.13;5074723;28;20027;-44
2022/05/18 01:36:51;;;;;;;2.65;0.95;;;;;;;25.85;38.10;101768.84;5074781;28;20113;-44
2022/05/18 01:39:30;;;;;;;6.60;1.02;;;;;;;25.83;38.07;101767.94;5074720;28;20033;-43
2022/05/18 01:42:05;;;;;;;3.50;0.95;;;;;;;25.85;38.31;101770.63;5074529;28;20054;-44
2022/05/18 01:44:32;;;;;;;;;;;;;;;25.86;37.99;101762.75;5073436;28;20036;-44
2022/05/18 01:47:01;;;;;;;3.40;0.80;;;;;;;25.87;37.85;101767.16;5074046;28;20003;-43
2022/05/18 01:49:29;;;;;;;1.88;0.75;;;;;;;25.86;37.79;101765.38;5074303;28;20089;-43
2022/05/18 01:52:00;;;;;;;2.33;0.90;;;;;;;25.81;38.02;101750.38;5073921;28;20036;-43
2022/05/18 01:54:28;;;;;;;2.92;1.20;;;;;;;25.82;37.77;101747.78;5074478;28;20129;-43
2022/05/18 01:56:58;;;;;;;2.25;1.10;;;;;;;25.81;37.94;101750.38;5074353;28;20024;-46
2022/05/18 01:59:27;;;;;;;2.65;0.88;;;;;;;25.77;37.92;101744.19;5074046;28;20565;-43
2022/05/18 02:01:55;;;;;;;2.38;1.00;;;;;;;25.74;38.00;101749.41;5074300;28;20090;-43
2022/05/18 02:04:24;;;;;;;7.55;1.40;;;;;;;25.72;37.89;101746.75;5072450;28;20043;-43
2022/05/18 02:06:52;;;;;;;2.00;0.82;;;;;;;25.74;37.57;101747.63;5073433;28;20466;-47
2022/05/18 02:09:20;;;;;;;1.42;0.68;;;;;;;25.72;37.80;101735.34;5073110;28;20075;-43
2022/05/18 02:11:48;;;;;;;4.93;1.17;;;;;;;25.73;38.04;101731.84;5072696;28;20020;-43
2022/05/18 02:14:17;;;;;;;3.90;1.27;;;;;;;25.64;38.00;101729.94;5055682;28;20021;-45
2022/05/18 02:16:46;;;;;;;3.58;1.08;;;;;;;25.71;37.87;101744.06;5073892;28;20017;-43
2022/05/18 02:19:14;;;;;;;4.82;1.20;;;;;;;25.67;37.94;101737.91;5073728;28;20515;-43
2022/05/18 02:21:43;;;;;;;3.75;0.93;;;;;;;25.59;38.00;101728.97;5073441;28;20074;-45
2022/05/18 02:24:10;;;;;;;2.80;0.80;;;;;;;25.59;37.86;101740.38;5072244;28;20367;-44
2022/05/18 02:26:39;;;;;;;1.70;0.73;;;;;;;25.61;37.83;101736.03;5073819;28;20025;-43
2022/05/18 02:29:08;;;;;;;2.50;0.85;;;;;;;25.67;37.92;101744.88;5073570;28;20028;-43
2022/05/18 02:31:37;;;;;;;1.67;0.45;;;;;;;25.59;37.74;101748.25;5073792;28;20107;-47
2022/05/18 02:34:06;;;;;;;4.20;1.58;;;;;;;25.61;37.96;101736.03;5073123;28;20024;-42
2022/05/18 02:36:34;;;;;;;2.75;0.93;;;;;;;25.59;38.02;101731.59;5073325;28;20020;-43
2022/05/18 02:39:03;;;;;;;2.90;0.75;;;;;;;25.63;37.64;101734.34;5073351;28;20115;-45
2022/05/18 02:41:31;;;;;;;4.07;1.20;;;;;;;25.62;37.85;101739.53;5055995;28;20037;-43
2022/05/18 02:44:01;;;;;;;2.72;0.90;;;;;;;25.60;37.95;101726.38;5072189;28;20036;-43
2022/05/18 02:46:30;;;;;;;2.10;0.80;;;;;;;25.61;37.72;101733.41;5073647;28;20363;-44
2022/05/18 02:48:57;;;;;;;3.97;1.30;;;;;;;25.60;37.89;101725.47;5072258;28;20429;-43
2022/05/18 02:51:26;;;;;;;3.17;0.90;;;;;;;25.55;37.72;101712.28;5073665;28;20035;-43
2022/05/18 02:53:55;;;;;;;2.97;1.08;;;;;;;25.25;37.77;101662.66;5072107;28;20024;-43
2022/05/18 02:56:26;;;;;;;4.47;1.10;;;;;;;25.57;37.61;101720.16;5073405;28;20032;-46
2022/05/18 02:58:56;;;;;;;2.47;1.02;;;;;;;25.52;37.65;101727.97;5073474;28;20433;-43
2022/05/18 03:01:27;;;;;;;3.35;0.80;;;;;;;25.51;37.96;101734.09;5072240;28;20032;-43
2022/05/18 03:03:56;;;;;;;2.50;1.10;;;;;;;25.52;37.64;101725.34;5072677;28;20497;-44
2022/05/18 03:06:25;;;;;;;2.40;0.98;;;;;;;25.51;37.50;101726.19;5073308;28;20103;-43
2022/05/18 03:08:54;;;;;;;1.13;0.52;;;;;;;25.51;37.72;101727.97;5072389;28;20032;-44
2022/05/18 03:11:22;;;;;;;2.92;0.80;;;;;;;25.51;37.51;101720.06;5073346;28;20362;-45
2022/05/18 03:13:50;;;;;;;3.67;0.98;;;;;;;25.46;37.60;101712.13;5073351;28;20035;-43
2022/05/18 03:16:19;;;;;;;1.27;0.65;;;;;;;25.50;37.55;101731.44;5072338;28;20032;-44
2022/05/18 03:18:47;;;;;;;3.13;0.88;;;;;;;25.50;37.70;101726.19;5071871;28;20045;-45
2022/05/18 03:24:03;;;;;;;3.95;1.40;;;;;;;25.44;37.80;101727.84;5072837;28;20102;-44
2022/05/18 03:26:32;;;;;;;2.70;0.85;;;;;;;25.43;37.91;101733.94;5076951;28;20526;-43
2022/05/18 03:29:00;;;;;;;3.35;0.80;;;;;;;25.43;37.45;101731.31;5075714;28;20469;-45
2022/05/18 03:31:29;;;;;;;1.75;0.75;;;;;;;25.38;37.65;101724.19;5076885;28;20024;-44
2022/05/18 03:33:58;;;;;;;3.00;0.95;;;;;;;25.46;37.68;101726.13;5076798;28;20375;-49
2022/05/18 03:36:26;;;;;;;4.90;1.00;;;;;;;25.45;37.84;101718.22;5077292;28;20025;-49
2022/05/18 03:38:55;;;;;;;4.60;1.17;;;;;;;25.30;37.79;101706.53;5076854;28;20382;-45
2022/05/18 03:41:24;;;;;;;3.05;0.80;;;;;;;25.39;37.41;101729.47;5076998;28;20031;-48
2022/05/18 03:43:52;;;;;;;4.43;0.98;;;;;;;25.40;37.69;101725.09;5075401;28;20430;-45
2022/05/18 03:46:21;;;;;;;2.25;0.77;;;;;;;25.38;37.68;101725.06;5075112;28;20067;-44
2022/05/18 03:48:50;;;;;;;3.80;1.15;;;;;;;25.42;37.39;101732.16;5076111;28;20043;-46
2022/05/18 03:51:18;;;;;;;1.73;0.75;;;;;;;25.41;37.42;101729.50;5076788;28;20025;-43
2022/05/18 03:53:47;;;;;;;4.22;1.13;;;;;;;25.33;37.67;101724.09;5075301;28;20027;-45
2022/05/18 03:56:15;;;;;;;5.40;1.35;;;;;;;25.32;37.54;101736.31;5076194;28;20039;-45
2022/05/18 03:58:44;;;;;;;5.72;1.10;;;;;;;25.22;37.71;101729.13;5075146;28;20588;-50
2022/05/18 04:01:13;;;;;;;2.58;0.80;;;;;;;25.19;37.90;101729.06;5075330;28;20116;-44
2022/05/18 04:03:44;;;;;;;3.90;0.90;;;;;;;25.29;37.55;101731.03;5076340;28;20025;-46
2022/05/18 04:06:13;;;;;;;4.47;1.15;;;;;;;25.27;37.82;101732.75;5076456;28;20031;-46
2022/05/18 04:08:41;;;;;;;3.30;1.25;;;;;;;25.24;37.86;101739.66;5074951;28;20035;-44
2022/05/18 04:11:10;;;;;;;3.38;0.82;;;;;;;25.29;37.74;101732.75;5076245;28;20056;-44
2022/05/18 04:13:38;;;;;;;4.47;1.40;;;;;;;25.31;37.63;101729.34;5075691;28;20024;-46
2022/05/18 04:16:05;;;;;;;3.17;1.05;;;;;;;25.28;37.47;101728.34;5076010;28;20098;-45
2022/05/18 04:18:33;;;;;;;2.95;1.10;;;;;;;25.31;37.35;101724.06;5076072;28;20028;-43
2022/05/18 04:21:02;;;;;;;3.83;1.15;;;;;;;25.27;37.34;101722.25;5076069;28;20025;-44
2022/05/18 04:23:31;;;;;;;2.47;1.20;;;;;;;25.33;37.47;101738.09;5075476;28;20090;-48
2022/05/18 04:25:59;;;;;;;3.50;1.20;;;;;;;25.30;37.69;101734.53;5075659;28;20044;-43
2022/05/18 04:28:26;;;;;;;3.17;1.00;;;;;;;25.28;37.74;101734.50;5076008;28;20028;-46
2022/05/18 04:30:55;;;;;;;4.07;0.85;;;;;;;25.24;37.61;101734.41;5075566;28;20028;-45
2022/05/18 04:33:24;;;;;;;3.80;1.10;;;;;;;25.25;37.64;101739.69;5075620;28;20039;-48
2022/05/18 04:35:53;;;;;;;4.47;1.40;;;;;;;25.27;37.54;101734.47;5075772;28;20390;-47
2022/05/18 04:38:23;;;;;;;3.22;0.90;;;;;;;25.29;37.41;101731.03;5075639;28;20050;-46
2022/05/18 04:40:51;;;;;;;6.45;1.08;;;;;;;25.26;37.58;101722.19;5074411;28;20080;-44
2022/05/18 04:43:20;;;;;;;2.30;1.00;;;;;;;25.24;37.75;101730.03;5075758;28;20058;-45
2022/05/18 04:45:50;;;;;;;3.47;0.95;;;;;;;25.21;37.89;101716.84;5075528;28;20028;-44
2022/05/18 04:48:20;;;;;;;2.92;0.93;;;;;;;25.24;37.66;101729.16;5074317;28;20059;-49
2022/05/18 04:50:48;;;;;;;4.43;1.77;;;;;;;25.26;37.74;101741.47;5074330;28;20447;-46
2022/05/18 04:53:18;;;;;;;1.95;1.02;;;;;;;25.21;37.44;101722.09;5075317;28;20025;-45
2022/05/18 04:55:47;;;;;;;3.97;1.50;;;;;;;25.22;37.62;101726.50;5075276;28;20054;-46
2022/05/18 04:58:16;;;;;;;2.65;0.88;;;;;;;25.20;37.69;101729.97;5075598;28;20036;-43
2022/05/18 05:00:44;;;;;;;3.75;1.30;;;;;;;25.23;37.77;101730.03;5075145;28;20488;-45
2022/05/18 05:03:12;;;;;;;1.65;0.90;;;;;;;25.24;37.59;101730.03;5073921;28;20077;-45
2022/05/18 05:05:41;;;;;;;2.08;0.82;;;;;;;25.26;37.63;101724.81;5075219;28;20024;-47
2022/05/18 05:08:09;;;;;;;3.00;1.08;;;;;;;25.31;37.77;101726.69;5073631;28;20580;-49
2022/05/18 05:10:38;;;;;;;4.22;0.90;;;;;;;25.33;37.59;101731.97;5075346;28;20469;-47
2022/05/18 05:13:05;;;;;;;3.92;1.20;;;;;;;25.32;37.85;101733.69;5074909;28;20528;-43
2022/05/18 05:15:34;;;;;;;5.47;1.50;;;;;;;25.29;37.78;101720.53;5075388;28;20579;-47
2022/05/18 05:18:01;;;;;;;2.60;1.05;;;;;;;25.39;37.54;101741.69;5075401;28;20029;-44
2022/05/18 05:20:30;;;;;;;5.30;1.45;;;;;;;25.32;37.46;101732.81;5075133;28;20106;-47
2022/05/18 05:22:57;;;;;;;3.00;1.27;;;;;;;25.29;37.69;101736.28;5074909;28;20021;-43
2022/05/18 05:25:25;;;;;;;4.18;1.30;;;;;;;25.33;37.90;101734.59;5074334;28;20383;-43
2022/05/18 05:27:55;;;;;;;6.75;1.00;;;;;;;25.30;37.84;101743.31;5074876;28;20109;-44
2022/05/18 05:30:24;;;;;;;5.43;1.23;;;;;;;25.33;37.61;101745.97;5074700;28;20460;-43
2022/05/18 05:32:52;;;;;;;5.28;1.70;;;;;;;25.33;37.52;101742.47;5074793;28;20043;-44
2022/05/18 05:35:20;;;;;;;2.78;0.93;;;;;;;25.36;37.72;101745.16;5074313;28;20090;-44
2022/05/18 05:37:49;;;;;;;4.78;1.30;;;;;;;25.43;37.60;101747.06;5074816;28;20024;-47
2022/05/18 05:40:17;;;;;;;4.68;1.15;;;;;;;25.47;37.41;101745.41;5074625;28;20104;-46
2022/05/18 05:42:45;;;;;;;3.70;1.10;;;;;;;25.46;37.43;101747.13;5073892;28;20359;-44
2022/05/18 05:45:14;;;;;;;3.80;1.15;;;;;;;25.43;37.74;101744.44;5074352;28;20378;-45
2022/05/18 05:47:43;;;;;;;3.63;1.10;;;;;;;25.36;37.42;101732.03;5073230;28;20116;-44
2022/05/18 05:50:11;;;;;;;5.55;1.23;;;;;;;25.36;37.44;101731.13;5074369;28;20039;-45
2022/05/18 05:52:40;;;;;;;3.55;1.08;;;;;;;25.37;37.29;101739.06;5074278;28;20029;-43
2022/05/18 05:55:08;;;;;;;3.97;1.00;;;;;;;25.44;37.31;101740.97;5074434;28;20102;-44
2022/05/18 05:57:37;;;;;;;4.50;1.55;;;;;;;25.40;37.32;101744.34;5074422;28;20028;-44
2022/05/18 06:00:07;;;;;;;4.47;1.20;;;;;;;25.37;37.72;101728.56;5056815;28;20081;-47
2022/05/18 06:02:34;;;;;;;5.60;1.88;;;;;;;25.38;37.80;101735.59;5072945;28;20483;-44
2022/05/18 06:05:03;;;;;;;7.47;1.85;;;;;;;25.43;37.39;101744.44;5074301;28;20351;-43
2022/05/18 06:07:32;;;;;;;4.22;1.20;;;;;;;25.44;37.59;101747.97;5073790;28;20102;-47
2022/05/18 06:10:01;;;;;;;6.35;1.15;;;;;;;25.44;37.43;101747.97;5073803;28;20486;-44
2022/05/18 06:12:28;;;;;;;7.80;1.60;;;;;;;25.37;38.07;101744.31;5074077;28;20028;-48
2022/05/18 06:14:57;;;;;;;5.35;1.70;;;;;;;25.31;37.96;101752.06;5073943;28;20413;-43
2022/05/18 06:17:25;;;;;;;8.18;2.13;;;;;;;25.22;38.26;101758.00;5073850;28;20016;-47
2022/05/18 06:19:54;;;;;;;5.40;1.70;;;;;;;25.24;38.28;101750.16;5073669;28;20032;-43
2022/05/18 06:22:22;;;;;;;8.52;1.90;;;;;;;25.29;37.76;101745.88;5073591;28;20063;-46
2022/05/18 06:24:51;;;;;;;5.63;1.65;;;;;;;25.35;38.09;101746.03;5072074;28;20040;-44
2022/05/18 06:27:20;;;;;;;4.32;1.90;;;;;;;25.36;37.83;101741.63;5073684;28;20032;-49
2022/05/18 06:29:48;;;;;;;12.27;1.40;;;;;;;25.42;38.08;101747.06;5073659;28;20032;-44
2022/05/18 06:32:16;;;;;;;5.10;1.73;;;;;;;25.45;37.86;101752.38;5073845;28;20440;-47
2022/05/18 06:34:45;;;;;;;5.00;1.50;;;;;;;25.49;37.79;101748.94;5073294;28;20021;-44
2022/05/18 06:37:13;;;;;;;8.50;1.65;;;;;;;25.51;37.51;101747.22;5071867;28;20028;-44
2022/05/18 06:39:42;;;;;;;6.30;1.70;;;;;;;25.51;37.65;101741.97;5073329;28;20472;-47
2022/05/18 06:42:10;;;;;;;7.68;1.65;;;;;;;25.52;37.93;101756.00;5073483;28;20043;-46
2022/05/18 06:44:39;;;;;;;6.95;1.73;;;;;;;25.43;37.74;101748.84;5073273;28;20017;-47
2022/05/18 06:47:07;;;;;;;5.43;2.25;;;;;;;25.45;38.03;101740.09;5073401;28;20446;-43
2022/05/18 06:49:35;;;;;;;8.07;2.40;;;;;;;25.38;38.08;101734.69;5072927;28;20028;-48
2022/05/18 06:52:03;;;;;;;7.18;2.10;;;;;;;25.49;38.26;101743.66;5073786;28;20016;-44
2022/05/18 06:54:32;;;;;;;8.63;2.55;;;;;;;25.45;38.37;101748.00;5073196;28;20035;-45
2022/05/18 06:57:01;;;;;;;5.75;1.90;;;;;;;25.50;38.00;101741.94;5073910;28;20063;-46
2022/05/18 06:59:29;;;;;;;4.80;1.70;;;;;;;25.51;38.31;101741.09;5073403;28;20082;-47
2022/05/18 07:01:58;;;;;;;4.55;1.90;;;;;;;25.52;38.08;101745.50;5073110;28;20029;-50
2022/05/18 07:04:26;;;;;;;5.45;1.80;;;;;;;25.55;38.21;101741.16;5073156;28;20021;-48
2022/05/18 07:06:55;;;;;;;5.45;1.85;;;;;;;25.46;38.48;101733.13;5073375;28;20114;-44
2022/05/18 07:09:24;;;;;;;7.50;2.30;;;;;;;25.37;38.28;101725.94;5072005;28;20107;-46
2022/05/18 07:11:53;;;;;;;9.70;2.20;;;;;;;25.53;38.35;101739.38;5073455;28;20377;-44
2022/05/18 07:14:24;;;;;;;5.68;1.50;;;;;;;25.43;38.64;101743.56;5073138;28;20050;-43
2022/05/18 07:16:52;;;;;;;6.35;1.80;;;;;;;25.49;38.30;101743.66;5073310;28;20420;-43
2022/05/18 07:19:22;;;;;;;5.18;1.80;;;;;;;25.59;38.11;101740.38;5072997;28;20024;-43
2022/05/18 07:21:51;;;;;;;7.80;1.95;;;;;;;25.57;38.23;101741.19;5073147;28;20424;-45
2022/05/18 07:24:19;;;;;;;6.90;2.00;;;;;;;25.56;38.33;101736.81;5072767;28;20131;-47
2022/05/18 07:26:48;;;;;;;6.63;1.70;;;;;;;25.63;38.01;101728.16;5072888;28;20098;-43
2022/05/18 07:29:16;;;;;;;4.68;1.92;;;;;;;25.69;38.28;101730.03;5073016;28;20032;-47
2022/05/18 07:32:24;;;;;;;5.63;1.90;;;;;;;25.61;38.43;101724.63;5072870;28;20028;-46
2022/05/18 07:34:31;;;;;;;9.32;1.50;;;;;;;25.57;37.97;101728.97;5069890;28;20488;-46
2022/05/18 07:36:59;;;;;;;6.47;1.75;;;;;;;25.61;38.10;101728.16;5072827;28;20033;-45
2022/05/18 07:39:28;;;;;;;5.00;2.00;;;;;;;25.67;38.58;101735.25;5072814;28;20036;-47
2022/05/18 07:41:58;;;;;;;4.60;1.63;;;;;;;25.53;38.35;101726.25;5071154;28;20063;-43
2022/05/18 07:44:27;;;;;;;7.40;2.05;;;;;;;25.60;38.46;101726.38;5072681;28;20036;-44
2022/05/18 07:46:56;;;;;;;7.65;1.90;;;;;;;25.61;38.62;101737.78;5071937;28;20505;-43
2022/05/18 07:49:24;;;;;;;4.78;1.73;;;;;;;25.58;38.55;101737.69;5071216;28;20077;-44
2022/05/18 07:51:53;;;;;;;5.78;2.10;;;;;;;25.53;38.37;101728.88;5071049;28;20504;-45
2022/05/18 07:54:22;;;;;;;6.05;2.15;;;;;;;25.61;38.57;101733.41;5072802;28;20108;-44
2022/05/18 07:56:50;;;;;;;10.60;2.63;;;;;;;25.44;38.57;101706.81;5071447;28;20032;-46
2022/05/18 07:59:19;;;;;;;8.85;2.67;;;;;;;25.53;39.25;101728.88;5073514;28;20027;-45
2022/05/18 08:01:47;;;;;;;8.32;3.00;;;;;;;25.40;39.73;101730.34;5072504;28;20096;-44
2022/05/18 08:04:16;;;;;;;12.48;3.53;;;;;;;25.45;39.46;101731.38;5072936;28;20025;-47
2022/05/18 08:06:45;;;;;;;14.32;3.13;;;;;;;25.53;39.21;101735.00;5091157;28;20477;-43
2022/05/18 08:09:13;;;;;;;13.30;3.55;;;;;;;25.43;39.46;101739.19;5074907;28;20062;-44
2022/05/18 08:15:10;;;;;;;11.85;3.47;;;;;;;25.42;39.73;101736.56;5072048;28;20039;-44
2022/05/18 08:17:17;;;;;;;9.60;2.95;;;;;;;25.45;39.50;101729.59;5069046;28;20036;-46
2022/05/18 08:19:46;;;;;;;13.68;3.58;;;;;;;25.36;39.89;101718.00;5074991;28;20024;-43
2022/05/18 08:22:15;;;;;;;11.73;3.70;;;;;;;25.37;39.95;101725.94;5075728;28;20032;-44
2022/05/18 08:24:45;;;;;;;13.07;3.67;;;;;;;25.33;39.91;101724.97;5075013;28;20044;-44
2022/05/18 08:27:16;;;;;;;12.65;3.00;;;;;;;25.31;40.16;101710.94;5075497;28;20056;-45
2022/05/18 08:29:45;;;;;;;12.25;3.47;;;;;;;25.30;39.82;101711.78;5074769;28;20028;-46
2022/05/18 08:32:14;;;;;;;10.80;3.35;;;;;;;25.38;39.97;101716.28;5074811;28;20025;-49
2022/05/18 08:34:42;;;;;;;12.55;3.45;;;;;;;25.47;39.71;101716.53;5076101;28;20103;-43
2022/05/18 08:37:11;;;;;;;11.02;2.92;;;;;;;25.45;39.38;101724.34;5074690;28;20028;-44
2022/05/18 08:39:39;;;;;;;10.50;2.78;;;;;;;25.47;39.45;101724.41;5075990;28;20031;-46
2022/05/18 08:42:08;;;;;;;13.57;2.85;;;;;;;25.36;39.49;101715.38;5075802;28;20028;-45
2022/05/18 08:44:37;;;;;;;7.53;2.40;;;;;;;25.37;39.77;101730.28;5091131;28;20025;-45
2022/05/18 08:47:17;;;;;;;11.95;3.53;;;;;;;25.43;39.43;101725.19;5076070;28;20028;-44
2022/05/18 08:49:56;;;;;;;10.05;3.38;;;;;;;25.33;39.66;101721.47;5057910;28;20119;-44
2022/05/18 08:52:48;;;;;;;9.13;2.60;;;;;;;25.32;39.82;101724.94;5074762;28;20036;-46
2022/05/18 08:55:36;;;;;;;9.80;2.42;;;;;;;25.34;39.76;101726.72;5066943;28;20032;-43
2022/05/18 08:58:11;;;;;;;10.60;2.70;;;;;;;25.34;39.62;101724.09;5075711;28;20378;-44
2022/05/18 09:00:43;;;;;;;9.75;2.88;;;;;;;25.34;39.57;101723.25;5074765;28;20410;-45
2022/05/18 09:03:17;;;;;;;9.02;2.80;;;;;;;25.38;39.61;101721.53;5074263;28;20032;-43
2022/05/18 09:05:59;;;;;;;9.38;3.10;;;;;;;25.39;39.82;101715.44;5074202;28;20520;-44
2022/05/18 09:08:33;;;;;;;6.88;2.30;;;;;;;25.38;39.74;101732.06;5074003;28;20452;-43
2022/05/18 09:11:06;;;;;;;10.52;2.42;;;;;;;25.39;39.60;101718.06;5074153;28;20103;-44
2022/05/18 09:13:36;;;;;;;8.38;2.28;;;;;;;25.38;39.39;101713.66;5075488;28;20031;-46
2022/05/18 09:16:07;;;;;;;10.00;2.80;;;;;;;25.37;39.73;101704.00;5074836;28;20371;-43
2022/05/18 09:19:14;;;;;;;6.78;2.33;;;;;;;25.35;40.33;101698.75;5074601;28;20036;-45
2022/05/18 09:21:51;;;;;;;13.43;2.83;;;;;;;25.40;39.89;101704.09;5071746;28;20041;-45
2022/05/18 09:24:59;;;;;;;8.25;2.63;;;;;;;25.42;40.11;101702.41;5074651;28;20044;-45
2022/05/18 09:27:56;;;;;;;9.80;2.67;;;;;;;25.53;39.63;101700.84;5070997;28;20474;-46
2022/05/18 09:30:52;;;;;;;11.30;2.42;;;;;;;25.53;39.77;101695.59;5071376;28;20466;-45
2022/05/18 09:33:35;;;;;;;8.02;2.80;;;;;;;25.54;39.48;101684.22;5070246;28;20043;-43
2022/05/18 09:36:14;;;;;;;11.50;2.67;;;;;;;25.51;39.80;101678.03;5074240;28;20036;-43
2022/05/18 09:38:50;;;;;;;10.27;2.83;;;;;;;25.53;39.75;101678.97;5074826;28;20029;-43
2022/05/18 09:41:21;;;;;;;10.57;2.30;;;;;;;25.57;39.59;101681.66;5074741;28;20060;-44
2022/05/18 09:43:54;;;;;;;10.50;2.55;;;;;;;25.54;39.69;101676.34;5073342;28;20465;-43
2022/05/18 09:46:25;;;;;;;7.47;2.08;;;;;;;25.53;39.35;101669.31;5073205;28;20032;-45
2022/05/18 09:48:58;;;;;;;11.35;2.75;;;;;;;25.56;39.39;101672.00;5073147;28;20486;-43
2022/05/18 09:51:26;;;;;;;14.65;2.47;;;;;;;25.61;39.50;101664.19;5090114;28;20500;-44
2022/05/18 09:53:54;;;;;;;12.40;2.72;;;;;;;25.59;39.53;101664.19;5074516;28;20052;-46
2022/05/18 09:56:54;;;;;;;8.23;2.30;;;;;;;25.53;39.22;101663.19;5056597;28;20032;-44
2022/05/18 09:59:25;;;;;;;10.45;2.65;;;;;;;25.55;39.36;101657.09;5070983;28;20466;-44
2022/05/18 10:07:28;;;;;;;10.77;2.95;;;;;;;25.54;39.04;101662.34;5070050;28;20390;-45
2022/05/18 10:10:05;;;;;;;9.27;2.13;;;;;;;25.51;38.93;101652.66;5074099;28;20063;-43
2022/05/18 10:12:43;;;;;;;9.48;2.42;;;;;;;25.57;39.30;101655.38;5055949;28;20029;-46
2022/05/18 10:15:32;;;;;;;11.90;2.90;;;;;;;25.67;38.95;101648.56;5072798;28;20126;-46
2022/05/18 10:18:12;;;;;;;6.93;2.40;;;;;;;25.67;38.83;101652.91;5073062;28;20032;-44
2022/05/18 10:20:41;;;;;;;9.63;2.65;;;;;;;25.65;38.55;101636.25;5073022;28;20120;-45
2022/05/18 10:23:39;;;;;;;9.48;2.78;;;;;;;25.72;38.65;101632.84;5056104;28;20099;-44
2022/05/18 10:26:23;;;;;;;9.48;2.40;;;;;;;25.75;38.43;101619.78;5057957;28;20051;-43
2022/05/18 10:29:01;;;;;;;6.30;1.70;;;;;;;25.79;37.96;101630.34;5073592;28;20039;-45
2022/05/18 10:31:31;;;;;;;8.95;2.35;;;;;;;25.78;37.89;101625.94;5073707;28;20035;-45
2022/05/18 10:34:29;;;;;;;5.35;2.33;;;;;;;25.63;37.75;101612.56;5073705;28;20025;-44
2022/05/18 10:37:00;;;;;;;9.10;2.17;;;;;;;25.74;37.81;101633.75;5073093;28;20109;-44
2022/05/18 10:39:49;;;;;;;8.02;1.83;;;;;;;25.81;37.82;101617.25;5072681;28;20021;-45
2022/05/18 10:42:24;;;;;;;7.30;1.80;;;;;;;25.84;38.00;101613.78;5073877;28;20017;-46
2022/05/18 10:44:54;;;;;;;7.40;1.90;;;;;;;25.87;38.01;101603.31;5072185;28;20085;-44
2022/05/18 10:47:32;;;;;;;9.73;1.80;;;;;;;25.87;37.48;101606.81;5055722;28;20024;-43
2022/05/18 10:50:23;;;;;;;9.50;2.17;;;;;;;25.81;37.32;101597.94;5055745;28;20032;-44
2022/05/18 10:52:54;;;;;;;8.00;2.08;;;;;;;25.74;37.68;101587.34;5072618;28;20123;-44
2022/05/18 10:55:25;;;;;;;9.75;2.30;;;;;;;25.80;37.70;101573.44;5055488;28;20385;-46
2022/05/18 10:57:57;;;;;;;9.15;1.83;;;;;;;25.82;37.65;101586.56;5072133;28;20077;-46
2022/05/18 11:00:31;;;;;;;10.55;3.22;;;;;;;25.88;37.96;101584.06;5072788;28;20052;-47
2022/05/18 11:03:24;;;;;;;6.20;2.10;;;;;;;25.89;37.85;101580.56;5072012;28;20024;-46
2022/05/18 11:05:57;;;;;;;7.13;1.98;;;;;;;25.91;37.54;101569.19;5072013;28;20099;-44
2022/05/18 11:08:30;;;;;;;5.95;1.80;;;;;;;25.96;37.54;101557.88;5072102;28;20112;-46
2022/05/18 11:11:21;;;;;;;6.60;2.05;;;;;;;25.96;37.49;101545.59;5073322;28;20067;-46
2022/05/18 11:14:15;;;;;;;7.70;2.03;;;;;;;26.05;37.48;101536.97;5067230;28;20039;-46
2022/05/18 11:17:03;;;;;;;4.93;2.05;;;;;;;26.01;37.51;101540.41;5069998;28;20033;-45
2022/05/18 11:19:45;;;;;;;8.05;2.28;;;;;;;26.03;37.43;101533.41;5073363;28;20087;-45
2022/05/18 11:22:24;;;;;;;5.65;1.30;;;;;;;26.09;37.37;101541.41;5088594;28;20394;-44
2022/05/18 11:25:20;;;;;;;8.02;1.80;;;;;;;26.15;37.12;101533.59;5072783;28;20127;-48
2022/05/18 11:27:53;;;;;;;10.32;1.98;;;;;;;26.12;37.36;101535.31;5073372;28;20025;-46
2022/05/18 11:30:31;;;;;;;7.78;2.65;;;;;;;26.11;36.77;101538.78;5071847;28;20478;-46
2022/05/18 11:33:22;;;;;;;5.70;1.77;;;;;;;26.13;37.13;101522.22;5073156;28;20474;-45
2022/05/18 11:35:51;;;;;;;4.35;1.48;;;;;;;26.13;36.93;101522.22;5073152;28;20032;-46
2022/05/18 11:38:57;;;;;;;5.50;1.70;;;;;;;26.24;36.67;101517.97;5072845;28;20020;-45
2022/05/18 11:41:33;;;;;;;6.90;2.13;;;;;;;26.16;36.17;101514.34;5066956;28;20047;-44
2022/05/18 11:44:06;;;;;;;10.50;1.90;;;;;;;26.11;36.12;101507.22;5075611;28;20082;-46
2022/05/18 11:46:38;;;;;;;8.88;1.85;;;;;;;26.10;36.48;101503.72;5075661;28;20028;-44
2022/05/18 11:49:15;;;;;;;10.63;1.90;;;;;;;26.03;36.30;101510.66;5075420;28;20432;-44
2022/05/18 11:52:03;;;;;;;5.72;1.52;;;;;;;26.06;36.48;101492.25;5075588;28;20377;-46
2022/05/18 11:54:51;;;;;;;5.40;1.65;;;;;;;25.98;36.68;101485.19;5076428;28;20024;-44
2022/05/18 11:57:57;;;;;;;8.70;1.80;;;;;;;26.01;36.25;101478.19;5066344;28;20089;-46